Time;durP1;ratioP1;P1;durP2;ratioP2;P2;SDS_P1;SDS_P2;PMS_P1;PMS_P2;Temp;Humidity;BMP_temperature;BMP_pressure;BME280_temperature;BME280_humidity;BME280_pressure;Samples;Min_cycle;Max_cycle;Signal;HPM_P1;HPM_P2
2023/03/03 00:00:54;;;;;;;191.50;119.80;;;;;;;-2.54;100.00;99228.54;109598;1250;58998;-76
2023/03/03 00:03:23;;;;;;;196.40;121.70;;;;;;;-2.57;100.00;99229.95;109621;1250;59108;-76
2023/03/03 00:05:50;;;;;;;188.50;116.00;;;;;;;-2.59;100.00;99229.80;109647;1250;67083;-76
2023/03/03 00:08:18;;;;;;;197.30;123.80;;;;;;;-2.62;100.00;99231.05;109614;1250;59747;-76
2023/03/03 00:10:45;;;;;;;210.20;129.50;;;;;;;-2.65;100.00;99230.73;109412;1250;63800;-76
2023/03/03 00:13:21;;;;;;;198.70;125.10;;;;;;;-2.67;100.00;99228.83;109642;1250;58916;-76
2023/03/03 00:15:49;;;;;;;187.10;119.80;;;;;;;-2.68;100.00;99226.59;109305;1250;59607;-76
2023/03/03 00:18:34;;;;;;;173.40;111.40;;;;;;;-2.70;100.00;99224.34;109677;1250;66881;-76
2023/03/03 00:21:13;;;;;;;182.00;112.50;;;;;;;-2.74;100.00;99223.70;109571;1250;60265;-76
2023/03/03 00:23:43;;;;;;;191.00;119.00;;;;;;;-2.78;100.00;99225.46;109276;1250;65059;-76
2023/03/03 00:26:33;;;;;;;195.10;120.60;;;;;;;-2.81;100.00;99227.23;109601;1250;58955;-76
2023/03/03 00:29:00;;;;;;;186.90;114.60;;;;;;;-2.84;100.00;99225.52;109659;1250;59037;-76
2023/03/03 00:31:35;;;;;;;189.40;117.90;;;;;;;-2.88;100.00;99223.13;109633;1250;66696;-76
2023/03/03 00:34:17;;;;;;;182.00;114.30;;;;;;;-2.91;100.00;99223.69;109639;1250;59764;-76
2023/03/03 00:36:48;;;;;;;180.80;112.40;;;;;;;-2.94;100.00;99228.23;109579;1254;64757;-76
2023/03/03 00:39:21;;;;;;;188.20;118.10;;;;;;;-2.97;100.00;99229.45;109338;1250;59050;-76
2023/03/03 00:41:47;;;;;;;181.80;118.00;;;;;;;-3.00;100.00;99224.44;109636;1250;59138;-76
2023/03/03 00:44:42;;;;;;;183.30;116.50;;;;;;;-3.02;100.00;99223.08;109366;1250;66808;-76
2023/03/03 00:47:36;;;;;;;194.20;119.30;;;;;;;-3.05;100.00;99216.15;109638;1250;59890;-76
2023/03/03 00:50:06;;;;;;;183.50;113.50;;;;;;;-3.07;100.00;99213.90;109680;1250;65084;-76
2023/03/03 00:52:38;;;;;;;197.60;120.00;;;;;;;-3.09;100.00;99210.62;109574;1250;58932;-76
2023/03/03 00:55:06;;;;;;;220.20;132.90;;;;;;;-3.09;100.00;99209.23;109657;1250;59083;-76
2023/03/03 00:57:33;;;;;;;200.50;123.60;;;;;;;-3.08;100.00;99204.36;109627;1250;66133;-76
2023/03/03 01:00:00;;;;;;;201.20;120.00;;;;;;;-3.06;100.00;99196.34;109370;1250;60149;-76
2023/03/03 01:02:26;;;;;;;202.20;122.50;;;;;;;-3.06;100.00;99196.34;109664;1250;64073;-76
2023/03/03 01:04:56;;;;;;;212.90;128.10;;;;;;;-3.08;100.00;99197.93;109640;1250;58934;-76
2023/03/03 01:07:24;;;;;;;209.50;123.40;;;;;;;-3.10;100.00;99197.59;109652;1250;59029;-76
2023/03/03 01:09:50;;;;;;;202.30;123.50;;;;;;;-3.14;100.00;99195.54;109673;1250;65661;-77
2023/03/03 01:12:17;;;;;;;211.00;124.00;;;;;;;-3.18;100.00;99196.10;109645;1250;61139;-75
2023/03/03 01:14:44;;;;;;;219.00;133.30;;;;;;;-3.23;100.00;99193.02;109318;1250;64624;-76
2023/03/03 01:17:11;;;;;;;228.90;132.20;;;;;;;-3.25;100.00;99189.21;108795;1250;1002410;-76
2023/03/03 01:19:38;;;;;;;223.70;130.70;;;;;;;-3.27;100.00;99187.66;108836;1250;1002949;-76
2023/03/03 01:22:04;;;;;;;236.70;135.70;;;;;;;-3.28;100.00;99185.41;108570;1250;1002547;-76
2023/03/03 01:24:31;;;;;;;220.80;130.70;;;;;;;-3.30;100.00;99184.20;109662;1250;60130;-76
2023/03/03 01:26:57;;;;;;;212.20;125.70;;;;;;;-3.31;100.00;99177.44;109660;1250;65013;-76
2023/03/03 01:29:24;;;;;;;224.60;131.90;;;;;;;-3.34;100.00;99180.59;109601;1250;59038;-76
2023/03/03 01:31:50;;;;;;;218.50;130.00;;;;;;;-3.36;100.00;99180.10;109651;1250;59175;-76
2023/03/03 01:34:17;;;;;;;225.40;131.70;;;;;;;-3.37;100.00;99185.49;109398;1250;66911;-76
2023/03/03 01:36:44;;;;;;;226.70;133.50;;;;;;;-3.40;100.00;99188.63;109252;1250;59101;-76
2023/03/03 01:39:11;;;;;;;241.90;142.20;;;;;;;-3.41;100.00;99189.52;109638;1250;63845;-76
2023/03/03 01:41:38;;;;;;;221.20;134.40;;;;;;;-3.39;100.00;99183.77;108909;1250;1002093;-75
2023/03/03 01:44:05;;;;;;;243.50;143.10;;;;;;;-3.37;100.00;99185.66;109660;1250;58966;-76
2023/03/03 01:46:47;;;;;;;223.40;139.50;;;;;;;-3.36;100.00;99187.02;109611;1250;66838;-75
2023/03/03 01:49:48;;;;;;;226.30;142.20;;;;;;;-3.33;100.00;99184.06;109553;1250;59053;-76
2023/03/03 01:52:29;;;;;;;220.50;136.10;;;;;;;-3.28;100.00;99184.02;109012;1258;65087;-76
2023/03/03 01:55:03;;;;;;;217.60;131.40;;;;;;;-3.27;100.00;99182.61;108983;1257;59068;-76
2023/03/03 01:57:38;;;;;;;215.00;128.90;;;;;;;-3.30;100.00;99182.30;108978;1260;59881;-76
2023/03/03 02:00:06;;;;;;;208.50;126.40;;;;;;;-3.36;100.00;99182.18;108975;1260;67330;-76
2023/03/03 02:02:33;;;;;;;202.20;125.40;;;;;;;-3.41;100.00;99184.64;108938;1259;60736;-76
2023/03/03 02:05:00;;;;;;;204.10;124.40;;;;;;;-3.46;100.00;99182.77;108919;1259;65233;-76
2023/03/03 02:07:29;;;;;;;205.10;124.10;;;;;;;-3.51;100.00;99182.11;108934;1259;59023;-75
2023/03/03 02:10:02;;;;;;;211.70;126.20;;;;;;;-3.56;100.00;99179.20;108171;1259;1003222;-75
2023/03/03 02:12:50;;;;;;;207.70;120.70;;;;;;;-3.62;100.00;99182.36;108943;1259;73920;-75
2023/03/03 02:15:39;;;;;;;202.00;123.20;;;;;;;-3.69;100.00;99180.16;108931;1259;60760;-76
2023/03/03 02:18:11;;;;;;;200.40;121.60;;;;;;;-3.74;100.00;99177.23;108924;1259;64002;-76
2023/03/03 02:21:02;;;;;;;194.90;118.00;;;;;;;-3.78;100.00;99175.86;108769;1259;60366;-76
2023/03/03 02:23:33;;;;;;;211.10;125.90;;;;;;;-3.82;100.00;99177.63;108927;1259;59999;-76
2023/03/03 02:26:14;;;;;;;215.50;125.70;;;;;;;-3.84;100.00;99181.98;108936;1259;66852;-76
2023/03/03 02:28:42;;;;;;;208.80;125.20;;;;;;;-3.86;100.00;99185.63;109046;1253;60036;-76
2023/03/03 02:31:14;;;;;;;217.10;130.60;;;;;;;-3.87;100.00;99182.88;109374;1253;73016;-76
2023/03/03 02:33:42;;;;;;;219.20;130.20;;;;;;;-3.89;100.00;99180.80;109200;1253;58988;-76
2023/03/03 02:36:13;;;;;;;216.50;129.80;;;;;;;-3.90;100.00;99184.11;109402;1253;59873;-76
2023/03/03 02:38:59;;;;;;;213.40;125.70;;;;;;;-3.92;100.00;99185.67;109455;1253;66735;-76
2023/03/03 02:41:32;;;;;;;212.00;125.00;;;;;;;-3.93;100.00;99176.31;109644;1250;61200;-76
2023/03/03 02:44:02;;;;;;;222.50;126.70;;;;;;;-3.96;100.00;99173.20;109632;1250;64731;-76
2023/03/03 02:46:33;;;;;;;225.50;131.50;;;;;;;-3.99;100.00;99172.70;109627;1250;59040;-76
2023/03/03 02:49:01;;;;;;;219.50;130.80;;;;;;;-4.01;100.00;99173.93;109645;1250;59123;-76
2023/03/03 02:51:27;;;;;;;236.40;134.50;;;;;;;-4.04;100.00;99172.73;108904;1250;1003069;-76
2023/03/03 02:53:54;;;;;;;218.30;130.60;;;;;;;-4.05;100.00;99169.26;108890;1250;1002972;-75
2023/03/03 02:56:21;;;;;;;226.40;132.10;;;;;;;-4.06;100.00;99169.43;108886;1250;1003060;-76
2023/03/03 02:58:48;;;;;;;222.10;134.00;;;;;;;-4.06;100.00;99171.86;109237;1250;58931;-76
2023/03/03 03:01:14;;;;;;;219.40;133.90;;;;;;;-4.06;100.00;99170.13;109630;1250;59114;-76
2023/03/03 03:03:41;;;;;;;229.90;136.90;;;;;;;-4.06;100.00;99170.99;109624;1250;67281;-76
2023/03/03 03:06:08;;;;;;;218.60;133.20;;;;;;;-4.06;100.00;99168.73;109617;1250;61118;-76
2023/03/03 03:08:34;;;;;;;223.40;134.00;;;;;;;-4.07;100.00;99173.77;109620;1250;64749;-76
2023/03/03 03:11:02;;;;;;;221.60;132.20;;;;;;;-4.09;100.00;99181.08;109637;1250;59025;-76
2023/03/03 03:13:29;;;;;;;231.20;135.80;;;;;;;-4.11;100.00;99182.12;109692;1250;59103;-76
2023/03/03 03:15:56;;;;;;;203.50;128.20;;;;;;;-4.13;100.00;99183.00;109680;1250;67013;-76
2023/03/03 03:18:23;;;;;;;224.60;135.60;;;;;;;-4.15;100.00;99186.83;109661;1250;61158;-77
2023/03/03 03:20:50;;;;;;;209.60;129.60;;;;;;;-4.15;100.00;99187.71;109610;1250;63641;-76
2023/03/03 03:23:17;;;;;;;209.70;128.80;;;;;;;-4.15;100.00;99184.95;109627;1250;58987;-77
2023/03/03 03:25:45;;;;;;;197.80;126.10;;;;;;;-4.17;100.00;99182.34;109656;1250;58999;-76
2023/03/03 03:28:13;;;;;;;205.10;127.10;;;;;;;-4.19;100.00;99180.09;109676;1250;67017;-76
2023/03/03 03:30:43;;;;;;;207.40;126.60;;;;;;;-4.21;100.00;99178.54;109705;1250;61185;-77
2023/03/03 03:33:10;;;;;;;203.50;127.10;;;;;;;-4.25;100.00;99173.35;108838;1250;1002332;-76
2023/03/03 03:35:39;;;;;;;212.10;127.70;;;;;;;-4.27;100.00;99173.88;109645;1250;58984;-76
2023/03/03 03:38:06;;;;;;;216.80;132.50;;;;;;;-4.30;100.00;99173.37;109651;1250;59254;-77
2023/03/03 03:40:32;;;;;;;199.10;127.10;;;;;;;-4.33;100.00;99171.83;109608;1250;66709;-76
2023/03/03 03:42:59;;;;;;;216.00;130.10;;;;;;;-4.34;100.00;99172.36;108895;1250;1002191;-76
2023/03/03 03:45:25;;;;;;;201.60;127.80;;;;;;;-4.36;100.00;99173.73;108825;1250;1002487;-76
2023/03/03 03:47:52;;;;;;;209.30;129.10;;;;;;;-4.38;100.00;99167.68;108486;1250;1002899;-76
2023/03/03 03:50:18;;;;;;;201.70;125.70;;;;;;;-4.40;100.00;99168.38;109644;1250;58900;-76
2023/03/03 03:52:45;;;;;;;207.90;128.80;;;;;;;-4.42;100.00;99170.31;109394;1250;66861;-77
2023/03/03 03:55:13;;;;;;;207.60;130.10;;;;;;;-4.44;100.00;99177.07;109705;1250;60254;-76
2023/03/03 03:57:41;;;;;;;215.30;131.60;;;;;;;-4.45;100.00;99182.27;109256;1250;64726;-76
2023/03/03 04:00:10;;;;;;;223.60;137.80;;;;;;;-4.44;100.00;99183.31;109316;1250;59033;-77
2023/03/03 04:02:37;;;;;;;220.50;136.40;;;;;;;-4.42;100.00;99184.35;109665;1250;59777;-76
2023/03/03 04:05:04;;;;;;;215.40;138.60;;;;;;;-4.39;100.00;99182.25;109672;1250;67020;-76
2023/03/03 04:07:31;;;;;;;217.60;135.60;;;;;;;-4.36;100.00;99179.13;109687;1250;61115;-76
2023/03/03 04:09:57;;;;;;;219.70;136.00;;;;;;;-4.34;100.00;99175.66;109576;1250;64160;-76
2023/03/03 04:12:24;;;;;;;217.40;133.60;;;;;;;-4.34;100.00;99170.27;109604;1250;58944;-77
2023/03/03 04:14:51;;;;;;;206.70;132.90;;;;;;;-4.36;100.00;99169.07;109350;1250;58992;-77
2023/03/03 04:17:19;;;;;;;218.80;137.60;;;;;;;-4.38;100.00;99169.42;109666;1250;65718;-77
2023/03/03 04:19:46;;;;;;;206.70;132.40;;;;;;;-4.41;100.00;99166.31;109654;1250;60189;-76
2023/03/03 04:22:14;;;;;;;199.50;127.10;;;;;;;-4.43;100.00;99167.19;109638;1250;64791;-76
2023/03/03 04:24:40;;;;;;;193.80;122.10;;;;;;;-4.47;100.00;99166.51;109603;1250;58960;-76
2023/03/03 04:27:08;;;;;;;198.10;124.40;;;;;;;-4.48;100.00;99165.29;109286;1250;59285;-77
2023/03/03 04:29:35;;;;;;;206.20;124.30;;;;;;;-4.52;100.00;99168.09;109643;1250;64698;-77
2023/03/03 04:32:01;;;;;;;201.90;129.60;;;;;;;-4.56;100.00;99173.13;109642;1250;60710;-76
2023/03/03 04:34:28;;;;;;;198.00;127.20;;;;;;;-4.56;100.00;99175.03;109359;1250;64219;-76
2023/03/03 04:36:55;;;;;;;194.00;124.40;;;;;;;-4.53;100.00;99177.27;109234;1250;59232;-77
2023/03/03 04:39:22;;;;;;;224.50;140.10;;;;;;;-4.52;100.00;99179.52;109666;1250;59039;-76
2023/03/03 04:41:48;;;;;;;222.40;140.10;;;;;;;-4.49;100.00;99186.97;109632;1250;66720;-76
2023/03/03 04:44:15;;;;;;;216.50;138.30;;;;;;;-4.48;100.00;99187.31;109503;1250;60697;-77
2023/03/03 04:46:41;;;;;;;218.90;136.70;;;;;;;-4.45;100.00;99187.99;109612;1250;64755;-77
2023/03/03 04:49:09;;;;;;;234.40;145.10;;;;;;;-4.42;100.00;99188.52;109643;1250;59053;-77
2023/03/03 04:51:35;;;;;;;226.20;139.50;;;;;;;-4.41;100.00;99186.77;109646;1250;59015;-77
2023/03/03 04:54:02;;;;;;;219.50;136.90;;;;;;;-4.40;100.00;99186.08;109623;1250;66095;-77
2023/03/03 04:56:30;;;;;;;217.80;129.00;;;;;;;-4.39;100.00;99183.48;108141;1250;1002722;-77
2023/03/03 04:58:57;;;;;;;222.70;125.90;;;;;;;-4.37;100.00;99186.42;109640;1249;64715;-77
2023/03/03 05:01:24;;;;;;;236.30;117.90;;;;;;;-4.36;100.00;99186.23;108885;1250;1002555;-77
2023/03/03 05:03:50;;;;;;;215.40;114.00;;;;;;;-4.34;100.00;99182.75;109651;1250;58979;-77
2023/03/03 05:06:17;;;;;;;244.80;119.60;;;;;;;-4.31;100.00;99181.35;109606;1251;67040;-77
2023/03/03 05:08:45;;;;;;;245.20;118.70;;;;;;;-4.27;100.00;99184.81;109330;1250;60525;-77
2023/03/03 05:11:12;;;;;;;266.50;128.50;;;;;;;-4.23;100.00;99191.56;109650;1250;64826;-76
2023/03/03 05:13:39;;;;;;;274.90;132.90;;;;;;;-4.17;100.00;99192.05;109621;1254;59140;-77
2023/03/03 05:16:06;;;;;;;288.10;131.40;;;;;;;-4.12;100.00;99192.37;109683;1250;59104;-76
2023/03/03 05:18:33;;;;;;;256.50;135.00;;;;;;;-4.08;100.00;99186.27;109544;1251;66560;-77
2023/03/03 05:20:59;;;;;;;236.70;125.30;;;;;;;-4.03;100.00;99188.34;109671;1254;61375;-77
2023/03/03 05:23:26;;;;;;;224.30;113.70;;;;;;;-3.97;100.00;99187.79;109290;1250;65207;-76
2023/03/03 05:25:52;;;;;;;212.00;116.30;;;;;;;-3.92;100.00;99185.84;109623;1251;58995;-77
2023/03/03 05:28:19;;;;;;;225.20;123.60;;;;;;;-3.88;100.00;99184.96;109640;1250;59019;-77
2023/03/03 05:30:46;;;;;;;196.60;115.00;;;;;;;-3.85;100.00;99184.08;109647;1251;66725;-77
2023/03/03 05:33:14;;;;;;;206.50;116.10;;;;;;;-3.82;100.00;99181.98;109606;1250;60775;-77
2023/03/03 05:35:42;;;;;;;200.70;114.00;;;;;;;-3.80;100.00;99179.88;109610;1251;72183;-77
2023/03/03 05:38:10;;;;;;;209.20;110.40;;;;;;;-3.76;100.00;99178.81;108813;1251;1002955;-76
2023/03/03 05:40:37;;;;;;;235.30;105.80;;;;;;;-3.71;100.00;99186.08;109663;1250;59059;-76
2023/03/03 05:43:04;;;;;;;218.80;108.90;;;;;;;-3.68;100.00;99190.39;109698;1250;66083;-76
2023/03/03 05:45:30;;;;;;;227.70;112.50;;;;;;;-3.64;100.00;99195.74;109664;1253;60976;-77
2023/03/03 05:47:57;;;;;;;225.00;109.80;;;;;;;-3.59;100.00;99199.70;109602;1251;64902;-77
2023/03/03 05:50:24;;;;;;;229.00;114.50;;;;;;;-3.53;100.00;99203.83;109618;1250;59036;-77
2023/03/03 05:52:51;;;;;;;224.60;116.10;;;;;;;-3.46;100.00;99211.44;109631;1250;59029;-77
2023/03/03 05:55:18;;;;;;;231.60;119.30;;;;;;;-3.40;100.00;99211.73;109613;1251;65975;-77
2023/03/03 05:57:45;;;;;;;239.70;117.10;;;;;;;-3.33;100.00;99216.03;109667;1251;59737;-76
2023/03/03 06:00:15;;;;;;;221.00;113.10;;;;;;;-3.27;100.00;99219.64;109364;1252;62803;-77
2023/03/03 06:02:42;;;;;;;258.90;118.20;;;;;;;-3.22;100.00;99217.52;109595;1251;58938;-77
2023/03/03 06:05:10;;;;;;;216.10;109.20;;;;;;;-3.16;100.00;99226.14;109629;1251;59489;-76
2023/03/03 06:07:37;;;;;;;239.40;104.00;;;;;;;-3.11;100.00;99224.02;109632;1250;65650;-77
2023/03/03 06:10:04;;;;;;;228.50;103.30;;;;;;;-3.07;100.00;99231.98;109660;1251;60508;-76
2023/03/03 06:12:31;;;;;;;255.30;111.20;;;;;;;-3.06;100.00;99240.32;109653;1250;64095;-77
2023/03/03 06:14:58;;;;;;;254.00;101.00;;;;;;;-3.04;100.00;99244.83;109612;1251;58968;-77
2023/03/03 06:17:24;;;;;;;222.80;105.50;;;;;;;-3.01;100.00;99243.59;109634;1250;59056;-76
2023/03/03 06:19:51;;;;;;;217.40;100.00;;;;;;;-2.95;100.00;99246.66;109624;1251;66159;-77
2023/03/03 06:22:17;;;;;;;213.10;103.40;;;;;;;-2.89;100.00;99251.46;109608;1251;60831;-76
2023/03/03 06:24:44;;;;;;;224.10;101.00;;;;;;;-2.85;100.00;99256.31;109560;1251;64718;-76
2023/03/03 06:27:11;;;;;;;225.80;109.70;;;;;;;-2.82;100.00;99261.16;109341;1251;58966;-76
2023/03/03 06:29:37;;;;;;;232.10;112.60;;;;;;;-2.78;100.00;99268.42;109650;1251;59174;-76
2023/03/03 06:32:04;;;;;;;215.10;101.50;;;;;;;-2.73;100.00;99272.55;109618;1251;67167;-76
2023/03/03 06:34:31;;;;;;;192.00;102.30;;;;;;;-2.70;100.00;99278.95;108813;1251;1003094;-76
2023/03/03 06:36:58;;;;;;;186.40;108.10;;;;;;;-2.67;100.00;99283.96;108842;1250;1002344;-76
2023/03/03 06:39:24;;;;;;;191.30;107.30;;;;;;;-2.61;100.00;99277.30;109630;1250;59097;-76
2023/03/03 06:41:51;;;;;;;182.40;104.90;;;;;;;-2.53;100.00;99277.75;109320;1251;59171;-77
2023/03/03 06:44:18;;;;;;;192.00;110.90;;;;;;;-2.47;100.00;99277.35;109633;1250;65697;-76
2023/03/03 06:46:44;;;;;;;179.50;107.80;;;;;;;-2.40;100.00;99275.02;109612;1250;60758;-76
2023/03/03 06:49:11;;;;;;;170.20;102.90;;;;;;;-2.31;100.00;99269.88;109642;1251;65210;-77
2023/03/03 06:51:38;;;;;;;172.30;103.40;;;;;;;-2.20;100.00;99268.02;109649;1250;59096;-77
2023/03/03 06:54:22;;;;;;;203.60;116.40;;;;;;;-2.06;100.00;99267.68;108820;1251;1002472;-77
2023/03/03 06:56:54;;;;;;;222.60;122.60;;;;;;;-1.93;100.00;99276.08;109321;1251;67413;-75
2023/03/03 06:59:21;;;;;;;201.50;118.20;;;;;;;-1.85;100.00;99276.48;109674;1250;60994;-77
2023/03/03 07:01:49;;;;;;;184.50;111.80;;;;;;;-1.77;100.00;99273.25;109610;1251;65193;-77
2023/03/03 07:04:27;;;;;;;177.10;114.70;;;;;;;-1.69;100.00;99266.71;109588;1250;58997;-77
2023/03/03 07:06:57;;;;;;;176.00;110.00;;;;;;;-1.62;100.00;99260.34;109611;1251;58856;-77
2023/03/03 07:09:28;;;;;;;159.90;104.00;;;;;;;-1.53;100.00;99250.46;109649;1251;66702;-76
2023/03/03 07:12:10;;;;;;;163.20;103.40;;;;;;;-1.39;100.00;99244.35;109573;1251;60673;-76
2023/03/03 07:14:43;;;;;;;171.60;108.40;;;;;;;-1.25;100.00;99239.27;109619;1251;65290;-76
2023/03/03 07:17:16;;;;;;;172.30;108.40;;;;;;;-1.10;100.00;99248.77;109617;1250;59042;-76
2023/03/03 07:19:43;;;;;;;161.20;100.60;;;;;;;-0.88;100.00;99261.86;109581;1251;58849;-76
2023/03/03 07:22:13;;;;;;;179.50;116.10;;;;;;;-0.70;100.00;99260.52;109628;1250;65633;-76
2023/03/03 07:24:40;;;;;;;174.00;108.70;;;;;;;-0.56;100.00;99257.65;109666;1251;60845;-76
2023/03/03 07:27:19;;;;;;;152.20;100.70;;;;;;;-0.40;100.00;99253.67;109615;1251;65184;-76
2023/03/03 07:29:48;;;;;;;159.90;102.70;;;;;;;-0.31;100.00;99254.22;109616;1251;58895;-76
2023/03/03 07:32:36;;;;;;;160.20;104.40;;;;;;;-0.23;100.00;99253.92;109629;1251;59099;-76
2023/03/03 07:35:21;;;;;;;175.90;105.90;;;;;;;-0.17;100.00;99234.40;109600;1251;66715;-77
2023/03/03 07:37:48;;;;;;;171.00;109.10;;;;;;;-0.06;100.00;99228.61;109376;1250;59790;-77
2023/03/03 07:40:46;;;;;;;180.50;115.20;;;;;;;0.12;100.00;99238.17;109638;1251;63731;-75
2023/03/03 07:43:28;;;;;;;171.80;109.10;;;;;;;0.31;100.00;99247.21;109368;1251;58954;-75
2023/03/03 07:46:09;;;;;;;184.30;116.60;;;;;;;0.34;100.00;99246.63;109630;1250;59232;-77
2023/03/03 07:48:41;;;;;;;190.10;119.80;;;;;;;0.36;100.00;99241.52;109621;1250;67511;-76
2023/03/03 07:51:58;;;;;;;189.90;120.00;;;;;;;0.46;100.00;99242.18;109640;1250;60735;-77
2023/03/03 07:54:47;;;;;;;154.10;98.80;;;;;;;0.62;100.00;99249.35;108633;1262;64231;-77
2023/03/03 07:57:26;;;;;;;146.00;91.00;;;;;;;0.61;100.00;99248.14;108627;1262;59074;-77
2023/03/03 08:00:17;;;;;;;140.90;91.70;;;;;;;0.51;100.00;99248.89;108735;1263;59090;-77
2023/03/03 08:03:03;;;;;;;125.40;76.70;;;;;;;0.40;100.00;99251.41;108819;1262;65958;-77
2023/03/03 08:05:34;;;;;;;129.20;79.90;;;;;;;0.27;100.00;99246.79;108872;1263;60678;-77
2023/03/03 08:08:15;;;;;;;118.20;79.40;;;;;;;0.24;100.00;99238.30;108792;1262;65433;-76
2023/03/03 08:10:48;;;;;;;;;;;;;;;0.32;100.00;99229.90;108796;1262;59454;-77
2023/03/03 08:13:38;;;;;;;126.30;79.80;;;;;;;0.34;100.00;99238.76;108820;1261;59200;-76
2023/03/03 08:16:10;;;;;;;137.80;83.80;;;;;;;0.36;100.00;99235.23;108455;1267;66122;-77
2023/03/03 08:18:36;;;;;;;115.50;75.60;;;;;;;0.43;100.00;99238.91;108494;1265;61488;-76
2023/03/03 08:21:17;;;;;;;131.30;82.10;;;;;;;0.47;100.00;99244.26;108589;1266;64117;-75
2023/03/03 08:23:44;;;;;;;136.50;83.00;;;;;;;0.49;100.00;99251.74;108548;1267;59019;-75
2023/03/03 08:26:12;;;;;;;123.50;79.80;;;;;;;0.50;100.00;99264.64;108560;1267;59074;-76
2023/03/03 08:28:39;;;;;;;139.90;87.70;;;;;;;0.48;100.00;99271.33;108771;1260;66700;-75
2023/03/03 08:31:06;;;;;;;150.00;94.50;;;;;;;0.45;100.00;99266.33;108948;1259;59935;-75
2023/03/03 08:33:32;;;;;;;145.50;89.40;;;;;;;0.40;100.00;99257.85;108906;1260;63696;-75
2023/03/03 08:36:00;;;;;;;150.00;92.70;;;;;;;0.40;100.00;99243.54;108895;1260;59156;-75
2023/03/03 08:38:27;;;;;;;152.90;92.30;;;;;;;0.36;100.00;99249.21;108940;1258;59153;-75
2023/03/03 08:40:53;;;;;;;167.30;102.80;;;;;;;0.24;100.00;99253.84;108949;1260;65657;-75
2023/03/03 08:43:21;;;;;;;168.70;104.30;;;;;;;0.10;100.00;99255.17;108927;1260;59047;-76
2023/03/03 08:45:50;;;;;;;172.60;106.90;;;;;;;0.04;100.00;99266.65;108940;1259;63812;-76
2023/03/03 08:48:17;;;;;;;166.20;101.80;;;;;;;0.01;100.00;99272.13;108926;1258;59444;-76
2023/03/03 08:50:58;;;;;;;180.90;104.00;;;;;;;-0.01;100.00;99281.77;108641;1264;59023;-76
2023/03/03 08:53:25;;;;;;;169.50;105.20;;;;;;;0.01;100.00;99282.79;108845;1256;66818;-76
2023/03/03 08:55:51;;;;;;;161.40;100.30;;;;;;;0.04;100.00;99281.50;109091;1256;59422;-76
2023/03/03 08:58:20;;;;;;;162.20;103.60;;;;;;;0.08;100.00;99281.95;108933;1256;64588;-75
2023/03/03 09:00:47;;;;;;;161.70;102.70;;;;;;;0.09;100.00;99281.91;108926;1256;59141;-76
2023/03/03 09:03:13;;;;;;;161.20;98.90;;;;;;;0.09;100.00;99285.94;109093;1257;59137;-76
2023/03/03 09:05:41;;;;;;;163.50;102.20;;;;;;;0.06;100.00;99289.14;109101;1257;66318;-76
2023/03/03 09:08:08;;;;;;;153.70;96.10;;;;;;;0.04;100.00;99295.83;109095;1256;59051;-76
2023/03/03 09:10:35;;;;;;;165.50;102.00;;;;;;;0.03;100.00;99293.74;109043;1256;64100;-77
2023/03/03 09:13:06;;;;;;;168.00;100.40;;;;;;;0.01;100.00;99286.97;109114;1256;59024;-76
2023/03/03 09:15:36;;;;;;;154.90;94.00;;;;;;;0.07;100.00;99283.73;109113;1257;59062;-75
2023/03/03 09:18:14;;;;;;;163.70;92.20;;;;;;;0.15;100.00;99281.98;109145;1256;66019;-76
2023/03/03 09:20:43;;;;;;;163.20;94.90;;;;;;;0.20;100.00;99282.91;109086;1256;60290;-76
2023/03/03 09:23:23;;;;;;;168.00;99.90;;;;;;;0.21;100.00;99287.97;109542;1250;64334;-76
2023/03/03 09:25:50;;;;;;;153.10;84.30;;;;;;;0.21;100.00;99290.92;109586;1250;59015;-77
2023/03/03 09:28:30;;;;;;;138.80;79.10;;;;;;;0.18;100.00;99286.63;109394;1250;59146;-76
2023/03/03 09:30:59;;;;;;;133.00;75.50;;;;;;;0.09;100.00;99280.34;109616;1250;66499;-75
2023/03/03 09:33:48;;;;;;;133.00;74.40;;;;;;;0.09;100.00;99280.35;109668;1250;60201;-76
2023/03/03 09:36:25;;;;;;;129.90;74.60;;;;;;;0.12;100.00;99283.77;109630;1250;62826;-75
2023/03/03 09:38:54;;;;;;;130.90;73.30;;;;;;;0.11;100.00;99281.88;109591;1250;58972;-76
2023/03/03 09:41:32;;;;;;;129.10;73.00;;;;;;;0.07;100.00;99284.42;109606;1250;59035;-76
2023/03/03 09:44:19;;;;;;;131.10;71.70;;;;;;;0.07;100.00;99289.30;109633;1250;64523;-76
2023/03/03 09:47:10;;;;;;;127.50;70.50;;;;;;;0.10;100.00;99293.09;109608;1250;59883;-76
2023/03/03 09:49:54;;;;;;;120.30;67.50;;;;;;;0.09;100.00;99302.36;109313;1250;64189;-76
2023/03/03 09:52:35;;;;;;;130.60;66.60;;;;;;;0.09;100.00;99302.52;109590;1250;58950;-76
2023/03/03 09:55:05;;;;;;;119.00;67.60;;;;;;;0.09;100.00;99300.96;109632;1250;59103;-75
2023/03/03 09:58:03;;;;;;;122.70;65.70;;;;;;;0.12;100.00;99295.48;109578;1250;66113;-76
2023/03/03 10:00:46;;;;;;;113.50;64.60;;;;;;;0.28;100.00;99287.48;109044;1257;59181;-76
2023/03/03 10:03:31;;;;;;;114.90;62.90;;;;;;;0.46;100.00;99287.81;109002;1257;62694;-76
2023/03/03 10:06:16;;;;;;;111.60;63.60;;;;;;;0.55;100.00;99286.55;108910;1257;59384;-76
2023/03/03 10:09:20;;;;;;;104.80;56.40;;;;;;;0.58;100.00;99284.23;109014;1257;58914;-76
2023/03/03 10:12:01;;;;;;;112.20;61.70;;;;;;;0.65;100.00;99283.54;108947;1257;64886;-76
2023/03/03 10:14:46;;;;;;;104.30;59.50;;;;;;;0.76;100.00;99294.49;109044;1257;60128;-76
2023/03/03 10:17:24;;;;;;;110.40;58.30;;;;;;;0.78;100.00;99303.70;109007;1257;72716;-76
2023/03/03 10:20:21;;;;;;;106.40;60.40;;;;;;;0.81;100.00;99302.25;108900;1257;58917;-76
2023/03/03 10:22:53;;;;;;;90.00;51.80;;;;;;;0.80;100.00;99308.74;109114;1257;58440;-76
2023/03/03 10:25:25;;;;;;;87.90;51.50;;;;;;;0.72;100.00;99309.09;109036;1257;64891;-75
2023/03/03 10:27:57;;;;;;;86.70;49.70;;;;;;;0.75;100.00;99310.60;109057;1257;60128;-76
2023/03/03 10:30:45;;;;;;;77.30;45.50;;;;;;;0.82;100.00;99310.61;109017;1257;62813;-77
2023/03/03 10:33:28;;;;;;;80.50;47.00;;;;;;;0.76;100.00;99303.77;108973;1257;59044;-77
2023/03/03 10:36:16;;;;;;;79.80;44.60;;;;;;;0.73;100.00;99300.34;108999;1259;59035;-75
2023/03/03 10:38:54;;;;;;;80.30;44.60;;;;;;;0.78;100.00;99297.23;109611;1250;64912;-75
2023/03/03 10:41:20;;;;;;;72.40;40.60;;;;;;;0.91;100.00;99306.23;109631;1250;59650;-75
2023/03/03 10:44:24;;;;;;;81.70;43.50;;;;;;;0.90;100.00;99317.09;109621;1250;62747;-78
2023/03/03 10:47:00;;;;;;;72.70;39.70;;;;;;;0.77;100.00;99313.02;109583;1250;59022;-75
2023/03/03 10:49:31;;;;;;;71.50;39.20;;;;;;;0.71;100.00;99307.90;109617;1250;58875;-75
2023/03/03 10:52:07;;;;;;;73.70;41.00;;;;;;;0.70;100.00;99311.77;109472;1250;65895;-75
2023/03/03 10:55:00;;;;;;;74.40;39.70;;;;;;;0.63;100.00;99315.05;109592;1250;60116;-76
2023/03/03 10:57:51;;;;;;;69.80;39.00;;;;;;;0.54;100.00;99316.84;108890;1257;63824;-75
2023/03/03 11:00:26;;;;;;;69.70;36.40;;;;;;;0.50;100.00;99321.45;108976;1257;59064;-77
2023/03/03 11:03:05;;;;;;;66.00;37.40;;;;;;;0.46;100.00;99327.64;108985;1257;59045;-76
2023/03/03 11:05:51;;;;;;;71.30;38.60;;;;;;;0.44;100.00;99333.12;109023;1257;67629;-76
2023/03/03 11:09:03;;;;;;;70.40;37.60;;;;;;;0.46;100.00;99332.56;109028;1257;60166;-76
2023/03/03 11:11:48;;;;;;;65.30;35.60;;;;;;;0.44;100.00;99325.60;109030;1257;64157;-76